sensor_id;sensor_type;location;lat;lon;timestamp;temperature;humidity
48551;DHT22;34397;51.176;6.738;2023-04-03T00:02:25;4.00;73.30
48551;DHT22;34397;51.176;6.738;2023-04-03T00:04:57;4.00;74.20
48551;DHT22;34397;51.176;6.738;2023-04-03T00:07:29;4.00;74.50
48551;DHT22;34397;51.176;6.738;2023-04-03T00:10:01;4.00;75.30
48551;DHT22;34397;51.176;6.738;2023-04-03T00:12:33;4.00;75.60
48551;DHT22;34397;51.176;6.738;2023-04-03T00:15:07;4.00;75.80
48551;DHT22;34397;51.176;6.738;2023-04-03T00:17:39;4.10;75.70
48551;DHT22;34397;51.176;6.738;2023-04-03T00:20:11;4.10;75.80
48551;DHT22;34397;51.176;6.738;2023-04-03T00:22:43;4.10;75.60
48551;DHT22;34397;51.176;6.738;2023-04-03T00:25:15;4.10;75.30
48551;DHT22;34397;51.176;6.738;2023-04-03T00:27:47;4.10;76.00
48551;DHT22;34397;51.176;6.738;2023-04-03T00:30:21;4.10;74.90
48551;DHT22;34397;51.176;6.738;2023-04-03T00:32:53;4.10;74.20
48551;DHT22;34397;51.176;6.738;2023-04-03T00:35:25;4.10;74.20
48551;DHT22;34397;51.176;6.738;2023-04-03T00:37:58;4.00;74.60
48551;DHT22;34397;51.176;6.738;2023-04-03T00:40:33;4.00;74.60
48551;DHT22;34397;51.176;6.738;2023-04-03T00:43:11;3.90;74.00
48551;DHT22;34397;51.176;6.738;2023-04-03T00:45:47;3.90;74.10
48551;DHT22;34397;51.176;6.738;2023-04-03T00:48:21;3.90;74.60
48551;DHT22;34397;51.176;6.738;2023-04-03T00:50:55;3.90;75.00
48551;DHT22;34397;51.176;6.738;2023-04-03T00:53:30;3.90;75.40
48551;DHT22;34397;51.176;6.738;2023-04-03T00:56:06;3.80;75.20
48551;DHT22;34397;51.176;6.738;2023-04-03T00:58:43;3.80;75.30
48551;DHT22;34397;51.176;6.738;2023-04-03T01:01:22;3.80;75.10
48551;DHT22;34397;51.176;6.738;2023-04-03T01:03:55;3.80;74.60
48551;DHT22;34397;51.176;6.738;2023-04-03T01:06:29;3.80;75.10
48551;DHT22;34397;51.176;6.738;2023-04-03T01:09:04;3.80;74.70
48551;DHT22;34397;51.176;6.738;2023-04-03T01:11:36;3.70;75.00
48551;DHT22;34397;51.176;6.738;2023-04-03T01:14:08;3.70;75.40
48551;DHT22;34397;51.176;6.738;2023-04-03T01:16:41;3.70;75.80
48551;DHT22;34397;51.176;6.738;2023-04-03T01:19:16;3.60;75.80
48551;DHT22;34397;51.176;6.738;2023-04-03T01:22:03;3.60;75.90
48551;DHT22;34397;51.176;6.738;2023-04-03T01:24:43;3.60;75.90
48551;DHT22;34397;51.176;6.738;2023-04-03T01:27:17;3.70;77.00
48551;DHT22;34397;51.176;6.738;2023-04-03T01:29:48;3.70;77.50
48551;DHT22;34397;51.176;6.738;2023-04-03T01:32:22;3.70;77.40
48551;DHT22;34397;51.176;6.738;2023-04-03T01:34:53;3.70;77.70
48551;DHT22;34397;51.176;6.738;2023-04-03T01:37:25;3.80;77.60
48551;DHT22;34397;51.176;6.738;2023-04-03T01:39:57;3.80;77.50
48551;DHT22;34397;51.176;6.738;2023-04-03T01:42:29;3.80;77.30
48551;DHT22;34397;51.176;6.738;2023-04-03T01:45:01;3.80;77.50
48551;DHT22;34397;51.176;6.738;2023-04-03T01:47:34;3.90;77.60
48551;DHT22;34397;51.176;6.738;2023-04-03T01:50:06;3.90;77.30
48551;DHT22;34397;51.176;6.738;2023-04-03T01:52:38;4.00;76.90
48551;DHT22;34397;51.176;6.738;2023-04-03T01:55:10;4.00;77.50
48551;DHT22;34397;51.176;6.738;2023-04-03T01:57:42;4.00;76.70
48551;DHT22;34397;51.176;6.738;2023-04-03T02:00:14;4.00;76.40
48551;DHT22;34397;51.176;6.738;2023-04-03T02:02:48;4.10;76.20
48551;DHT22;34397;51.176;6.738;2023-04-03T02:05:20;4.10;75.80
48551;DHT22;34397;51.176;6.738;2023-04-03T02:07:52;4.10;76.20
48551;DHT22;34397;51.176;6.738;2023-04-03T02:10:24;4.10;76.00
48551;DHT22;34397;51.176;6.738;2023-04-03T02:12:56;4.20;75.70
48551;DHT22;34397;51.176;6.738;2023-04-03T02:15:28;4.20;75.50
48551;DHT22;34397;51.176;6.738;2023-04-03T02:18:01;4.20;75.60
48551;DHT22;34397;51.176;6.738;2023-04-03T02:20:33;4.20;75.00
48551;DHT22;34397;51.176;6.738;2023-04-03T02:23:05;4.20;75.00
48551;DHT22;34397;51.176;6.738;2023-04-03T02:25:37;4.20;74.50
48551;DHT22;34397;51.176;6.738;2023-04-03T02:28:08;4.20;74.40
48551;DHT22;34397;51.176;6.738;2023-04-03T02:30:40;4.30;74.30
48551;DHT22;34397;51.176;6.738;2023-04-03T02:33:13;4.30;74.30
48551;DHT22;34397;51.176;6.738;2023-04-03T02:35:45;4.30;73.60
48551;DHT22;34397;51.176;6.738;2023-04-03T02:38:24;4.30;73.60
48551;DHT22;34397;51.176;6.738;2023-04-03T02:41:00;4.30;73.50
48551;DHT22;34397;51.176;6.738;2023-04-03T02:43:32;4.30;72.80
48551;DHT22;34397;51.176;6.738;2023-04-03T02:46:04;4.30;73.70
48551;DHT22;34397;51.176;6.738;2023-04-03T02:48:38;4.30;73.50
48551;DHT22;34397;51.176;6.738;2023-04-03T02:51:09;4.30;74.20
48551;DHT22;34397;51.176;6.738;2023-04-03T02:53:41;4.30;73.00
48551;DHT22;34397;51.176;6.738;2023-04-03T02:56:13;4.30;73.10
48551;DHT22;34397;51.176;6.738;2023-04-03T02:58:45;4.30;72.90
48551;DHT22;34397;51.176;6.738;2023-04-03T03:01:16;4.30;72.50
48551;DHT22;34397;51.176;6.738;2023-04-03T03:03:50;4.30;72.60
48551;DHT22;34397;51.176;6.738;2023-04-03T03:06:21;4.30;72.70
48551;DHT22;34397;51.176;6.738;2023-04-03T03:08:53;4.30;73.10
48551;DHT22;34397;51.176;6.738;2023-04-03T03:11:25;4.30;72.90
48551;DHT22;34397;51.176;6.738;2023-04-03T03:13:57;4.30;72.50
48551;DHT22;34397;51.176;6.738;2023-04-03T03:16:29;4.30;72.40
48551;DHT22;34397;51.176;6.738;2023-04-03T03:19:02;4.30;72.40
48551;DHT22;34397;51.176;6.738;2023-04-03T03:21:35;4.30;72.20
48551;DHT22;34397;51.176;6.738;2023-04-03T03:24:07;4.30;72.60
48551;DHT22;34397;51.176;6.738;2023-04-03T03:26:39;4.30;72.00
48551;DHT22;34397;51.176;6.738;2023-04-03T03:29:11;4.30;72.30
48551;DHT22;34397;51.176;6.738;2023-04-03T03:31:43;4.30;72.10
48551;DHT22;34397;51.176;6.738;2023-04-03T03:34:16;4.30;71.90
48551;DHT22;34397;51.176;6.738;2023-04-03T03:36:48;4.30;71.70
48551;DHT22;34397;51.176;6.738;2023-04-03T03:39:20;4.30;71.90
48551;DHT22;34397;51.176;6.738;2023-04-03T03:41:52;4.30;71.90
48551;DHT22;34397;51.176;6.738;2023-04-03T03:44:24;4.20;71.70
48551;DHT22;34397;51.176;6.738;2023-04-03T03:46:55;4.20;72.00
48551;DHT22;34397;51.176;6.738;2023-04-03T03:49:29;4.20;71.50
48551;DHT22;34397;51.176;6.738;2023-04-03T03:52:00;4.20;71.50
48551;DHT22;34397;51.176;6.738;2023-04-03T03:54:32;4.20;71.70
48551;DHT22;34397;51.176;6.738;2023-04-03T03:57:04;4.20;71.90
48551;DHT22;34397;51.176;6.738;2023-04-03T03:59:36;4.20;71.60
48551;DHT22;34397;51.176;6.738;2023-04-03T04:02:08;4.20;71.30
48551;DHT22;34397;51.176;6.738;2023-04-03T04:04:41;4.10;71.20
48551;DHT22;34397;51.176;6.738;2023-04-03T04:07:13;4.20;71.30
48551;DHT22;34397;51.176;6.738;2023-04-03T04:09:45;4.10;71.00
48551;DHT22;34397;51.176;6.738;2023-04-03T04:12:17;4.10;71.10
48551;DHT22;34397;51.176;6.738;2023-04-03T04:14:48;4.10;71.00
48551;DHT22;34397;51.176;6.738;2023-04-03T04:17:21;4.10;71.30
48551;DHT22;34397;51.176;6.738;2023-04-03T04:19:54;4.10;71.20
48551;DHT22;34397;51.176;6.738;2023-04-03T04:22:26;4.10;70.80
48551;DHT22;34397;51.176;6.738;2023-04-03T04:24:58;4.00;70.90
48551;DHT22;34397;51.176;6.738;2023-04-03T04:27:30;4.10;71.40
48551;DHT22;34397;51.176;6.738;2023-04-03T04:30:02;4.00;70.90
48551;DHT22;34397;51.176;6.738;2023-04-03T04:32:34;4.00;70.90
48551;DHT22;34397;51.176;6.738;2023-04-03T04:35:08;4.00;70.90
48551;DHT22;34397;51.176;6.738;2023-04-03T04:37:40;4.00;71.10
48551;DHT22;34397;51.176;6.738;2023-04-03T04:40:12;4.00;71.30
48551;DHT22;34397;51.176;6.738;2023-04-03T04:42:44;4.00;71.10
48551;DHT22;34397;51.176;6.738;2023-04-03T04:45:16;3.90;71.00
48551;DHT22;34397;51.176;6.738;2023-04-03T04:47:48;3.90;71.00
48551;DHT22;34397;51.176;6.738;2023-04-03T04:50:23;3.90;70.90
48551;DHT22;34397;51.176;6.738;2023-04-03T04:52:55;3.90;70.80
48551;DHT22;34397;51.176;6.738;2023-04-03T04:55:27;3.90;71.00
48551;DHT22;34397;51.176;6.738;2023-04-03T04:57:58;3.90;70.80
48551;DHT22;34397;51.176;6.738;2023-04-03T05:00:30;3.80;71.00
48551;DHT22;34397;51.176;6.738;2023-04-03T05:03:02;3.90;70.90
48551;DHT22;34397;51.176;6.738;2023-04-03T05:05:35;3.80;71.00
48551;DHT22;34397;51.176;6.738;2023-04-03T05:08:07;3.80;70.70
48551;DHT22;34397;51.176;6.738;2023-04-03T05:10:39;3.80;71.40
48551;DHT22;34397;51.176;6.738;2023-04-03T05:13:12;3.80;71.10
48551;DHT22;34397;51.176;6.738;2023-04-03T05:15:45;3.70;70.80
48551;DHT22;34397;51.176;6.738;2023-04-03T05:18:17;3.80;70.90
48551;DHT22;34397;51.176;6.738;2023-04-03T05:20:50;3.70;71.40
48551;DHT22;34397;51.176;6.738;2023-04-03T05:23:22;3.70;70.90
48551;DHT22;34397;51.176;6.738;2023-04-03T05:25:53;3.70;70.90
48551;DHT22;34397;51.176;6.738;2023-04-03T05:28:25;3.70;70.90
48551;DHT22;34397;51.176;6.738;2023-04-03T05:30:58;3.70;70.50
48551;DHT22;34397;51.176;6.738;2023-04-03T05:33:30;3.70;70.60
48551;DHT22;34397;51.176;6.738;2023-04-03T05:36:04;3.70;70.70
48551;DHT22;34397;51.176;6.738;2023-04-03T05:38:37;3.70;70.30
48551;DHT22;34397;51.176;6.738;2023-04-03T05:41:09;3.70;70.80
48551;DHT22;34397;51.176;6.738;2023-04-03T05:43:41;3.70;71.30
48551;DHT22;34397;51.176;6.738;2023-04-03T05:46:14;3.70;71.00
48551;DHT22;34397;51.176;6.738;2023-04-03T05:48:47;3.70;70.70
48551;DHT22;34397;51.176;6.738;2023-04-03T05:51:33;3.70;70.90
48551;DHT22;34397;51.176;6.738;2023-04-03T05:54:11;3.70;70.60
48551;DHT22;34397;51.176;6.738;2023-04-03T05:56:44;3.70;69.80
48551;DHT22;34397;51.176;6.738;2023-04-03T05:59:16;3.70;70.80
48551;DHT22;34397;51.176;6.738;2023-04-03T06:01:48;3.70;70.60
48551;DHT22;34397;51.176;6.738;2023-04-03T06:04:20;3.70;70.90
48551;DHT22;34397;51.176;6.738;2023-04-03T06:06:55;3.70;71.00
48551;DHT22;34397;51.176;6.738;2023-04-03T06:09:28;3.70;70.50
48551;DHT22;34397;51.176;6.738;2023-04-03T06:12:00;3.70;70.40
48551;DHT22;34397;51.176;6.738;2023-04-03T06:14:32;3.70;71.10
48551;DHT22;34397;51.176;6.738;2023-04-03T06:17:04;3.70;70.30
48551;DHT22;34397;51.176;6.738;2023-04-03T06:19:36;3.70;70.20
48551;DHT22;34397;51.176;6.738;2023-04-03T06:22:09;3.80;70.40
48551;DHT22;34397;51.176;6.738;2023-04-03T06:24:42;3.80;70.40
48551;DHT22;34397;51.176;6.738;2023-04-03T06:27:14;3.80;69.80
48551;DHT22;34397;51.176;6.738;2023-04-03T06:29:47;3.80;70.00
48551;DHT22;34397;51.176;6.738;2023-04-03T06:32:19;3.90;69.40
48551;DHT22;34397;51.176;6.738;2023-04-03T06:34:51;3.90;69.80
48551;DHT22;34397;51.176;6.738;2023-04-03T06:37:24;4.00;68.90
48551;DHT22;34397;51.176;6.738;2023-04-03T06:39:59;4.00;69.40
48551;DHT22;34397;51.176;6.738;2023-04-03T06:42:34;4.00;68.90
48551;DHT22;34397;51.176;6.738;2023-04-03T06:45:07;4.00;68.70
48551;DHT22;34397;51.176;6.738;2023-04-03T06:47:41;4.00;68.80
48551;DHT22;34397;51.176;6.738;2023-04-03T06:50:13;4.00;68.20
48551;DHT22;34397;51.176;6.738;2023-04-03T06:52:47;4.00;68.30
48551;DHT22;34397;51.176;6.738;2023-04-03T06:55:18;4.00;68.00
48551;DHT22;34397;51.176;6.738;2023-04-03T06:57:50;4.00;68.20
48551;DHT22;34397;51.176;6.738;2023-04-03T07:00:22;4.00;68.40
48551;DHT22;34397;51.176;6.738;2023-04-03T07:02:55;4.10;68.00
48551;DHT22;34397;51.176;6.738;2023-04-03T07:05:28;4.10;68.90
48551;DHT22;34397;51.176;6.738;2023-04-03T07:08:02;4.10;68.10
48551;DHT22;34397;51.176;6.738;2023-04-03T07:10:34;4.10;67.80
48551;DHT22;34397;51.176;6.738;2023-04-03T07:13:05;4.10;67.60
48551;DHT22;34397;51.176;6.738;2023-04-03T07:15:37;4.10;67.70
48551;DHT22;34397;51.176;6.738;2023-04-03T07:18:09;4.10;67.70
48551;DHT22;34397;51.176;6.738;2023-04-03T07:20:41;4.20;67.90
48551;DHT22;34397;51.176;6.738;2023-04-03T07:23:14;4.20;67.70
48551;DHT22;34397;51.176;6.738;2023-04-03T07:25:48;4.30;67.50
48551;DHT22;34397;51.176;6.738;2023-04-03T07:28:22;4.30;67.40
48551;DHT22;34397;51.176;6.738;2023-04-03T07:31:00;4.30;66.60
48551;DHT22;34397;51.176;6.738;2023-04-03T07:33:33;4.40;66.20
48551;DHT22;34397;51.176;6.738;2023-04-03T07:36:06;4.40;66.20
48551;DHT22;34397;51.176;6.738;2023-04-03T07:38:39;4.40;66.40
48551;DHT22;34397;51.176;6.738;2023-04-03T07:41:13;4.50;66.10
48551;DHT22;34397;51.176;6.738;2023-04-03T07:43:46;4.50;66.20
48551;DHT22;34397;51.176;6.738;2023-04-03T07:46:20;4.60;65.80
48551;DHT22;34397;51.176;6.738;2023-04-03T07:48:52;4.60;65.10
48551;DHT22;34397;51.176;6.738;2023-04-03T07:51:23;4.60;65.10
48551;DHT22;34397;51.176;6.738;2023-04-03T07:53:57;4.60;65.10
48551;DHT22;34397;51.176;6.738;2023-04-03T07:56:29;4.70;65.00
48551;DHT22;34397;51.176;6.738;2023-04-03T07:59:02;4.70;64.70
48551;DHT22;34397;51.176;6.738;2023-04-03T08:01:34;4.70;65.10
48551;DHT22;34397;51.176;6.738;2023-04-03T08:04:06;4.80;63.70
48551;DHT22;34397;51.176;6.738;2023-04-03T08:06:38;4.80;63.90
48551;DHT22;34397;51.176;6.738;2023-04-03T08:09:11;4.80;63.60
48551;DHT22;34397;51.176;6.738;2023-04-03T08:11:43;4.90;63.40
48551;DHT22;34397;51.176;6.738;2023-04-03T08:14:15;4.90;63.10
48551;DHT22;34397;51.176;6.738;2023-04-03T08:16:48;4.90;63.40
48551;DHT22;34397;51.176;6.738;2023-04-03T08:19:20;4.90;63.50
48551;DHT22;34397;51.176;6.738;2023-04-03T08:21:53;5.00;60.50
48551;DHT22;34397;51.176;6.738;2023-04-03T08:24:27;5.00;61.10
48551;DHT22;34397;51.176;6.738;2023-04-03T08:26:58;5.00;61.60
48551;DHT22;34397;51.176;6.738;2023-04-03T08:29:30;5.10;59.00
48551;DHT22;34397;51.176;6.738;2023-04-03T08:32:02;5.00;59.20
48551;DHT22;34397;51.176;6.738;2023-04-03T08:34:34;5.00;59.50
48551;DHT22;34397;51.176;6.738;2023-04-03T08:37:07;5.00;59.50
48551;DHT22;34397;51.176;6.738;2023-04-03T08:39:40;5.10;58.60
48551;DHT22;34397;51.176;6.738;2023-04-03T08:42:18;5.10;58.80
48551;DHT22;34397;51.176;6.738;2023-04-03T08:45:08;5.10;58.40
48551;DHT22;34397;51.176;6.738;2023-04-03T08:47:47;5.10;58.70
48551;DHT22;34397;51.176;6.738;2023-04-03T08:50:26;5.10;58.40
48551;DHT22;34397;51.176;6.738;2023-04-03T08:53:02;5.20;57.90
48551;DHT22;34397;51.176;6.738;2023-04-03T08:55:41;5.20;57.40
48551;DHT22;34397;51.176;6.738;2023-04-03T08:58:16;5.20;56.80
48551;DHT22;34397;51.176;6.738;2023-04-03T09:00:51;5.30;56.50
48551;DHT22;34397;51.176;6.738;2023-04-03T09:03:30;5.30;56.90
48551;DHT22;34397;51.176;6.738;2023-04-03T09:06:04;5.30;55.30
48551;DHT22;34397;51.176;6.738;2023-04-03T09:08:42;5.30;56.30
48551;DHT22;34397;51.176;6.738;2023-04-03T09:11:24;5.40;55.60
48551;DHT22;34397;51.176;6.738;2023-04-03T09:14:02;5.40;54.40
48551;DHT22;34397;51.176;6.738;2023-04-03T09:16:43;5.50;55.80
48551;DHT22;34397;51.176;6.738;2023-04-03T09:19:23;5.50;55.40
48551;DHT22;34397;51.176;6.738;2023-04-03T09:22:13;5.50;54.90
48551;DHT22;34397;51.176;6.738;2023-04-03T09:24:55;5.60;55.20
48551;DHT22;34397;51.176;6.738;2023-04-03T09:27:30;5.70;54.10
48551;DHT22;34397;51.176;6.738;2023-04-03T09:30:02;5.70;55.30
48551;DHT22;34397;51.176;6.738;2023-04-03T09:32:35;5.80;53.80
48551;DHT22;34397;51.176;6.738;2023-04-03T09:35:14;5.90;50.50
48551;DHT22;34397;51.176;6.738;2023-04-03T09:37:51;5.90;52.20
48551;DHT22;34397;51.176;6.738;2023-04-03T09:40:33;5.90;52.30
48551;DHT22;34397;51.176;6.738;2023-04-03T09:43:23;6.00;52.00
48551;DHT22;34397;51.176;6.738;2023-04-03T09:46:17;6.00;52.40
48551;DHT22;34397;51.176;6.738;2023-04-03T09:48:59;6.10;52.00
48551;DHT22;34397;51.176;6.738;2023-04-03T09:51:31;6.20;52.00
48551;DHT22;34397;51.176;6.738;2023-04-03T09:54:25;6.30;51.80
48551;DHT22;34397;51.176;6.738;2023-04-03T09:57:06;6.30;50.80
48551;DHT22;34397;51.176;6.738;2023-04-03T09:59:45;6.40;51.50
48551;DHT22;34397;51.176;6.738;2023-04-03T10:02:31;6.50;50.80
48551;DHT22;34397;51.176;6.738;2023-04-03T10:05:29;6.70;50.10
48551;DHT22;34397;51.176;6.738;2023-04-03T10:08:20;7.10;50.10
48551;DHT22;34397;51.176;6.738;2023-04-03T10:11:11;7.60;50.40
48551;DHT22;34397;51.176;6.738;2023-04-03T10:13:53;8.30;50.30
48551;DHT22;34397;51.176;6.738;2023-04-03T10:16:32;9.00;49.10
48551;DHT22;34397;51.176;6.738;2023-04-03T10:19:25;9.70;48.40
48551;DHT22;34397;51.176;6.738;2023-04-03T10:22:13;10.50;45.30
48551;DHT22;34397;51.176;6.738;2023-04-03T10:24:55;11.20;43.80
48551;DHT22;34397;51.176;6.738;2023-04-03T10:27:42;11.90;42.60
48551;DHT22;34397;51.176;6.738;2023-04-03T10:30:28;12.60;41.00
48551;DHT22;34397;51.176;6.738;2023-04-03T10:33:24;13.20;40.50
48551;DHT22;34397;51.176;6.738;2023-04-03T10:36:12;13.90;39.40
48551;DHT22;34397;51.176;6.738;2023-04-03T10:38:57;14.50;36.50
48551;DHT22;34397;51.176;6.738;2023-04-03T10:41:43;15.10;36.10
48551;DHT22;34397;51.176;6.738;2023-04-03T10:44:29;15.50;34.90
48551;DHT22;34397;51.176;6.738;2023-04-03T10:47:12;16.00;34.20
48551;DHT22;34397;51.176;6.738;2023-04-03T10:49:56;16.30;31.60
48551;DHT22;34397;51.176;6.738;2023-04-03T10:52:39;16.70;30.30
48551;DHT22;34397;51.176;6.738;2023-04-03T10:55:24;16.90;31.30
48551;DHT22;34397;51.176;6.738;2023-04-03T10:58:04;16.80;30.90
48551;DHT22;34397;51.176;6.738;2023-04-03T11:00:39;16.80;30.30
48551;DHT22;34397;51.176;6.738;2023-04-03T11:03:16;17.10;30.50
48551;DHT22;34397;51.176;6.738;2023-04-03T11:06:00;17.40;30.40
48551;DHT22;34397;51.176;6.738;2023-04-03T11:08:36;17.70;28.60
48551;DHT22;34397;51.176;6.738;2023-04-03T11:11:13;18.00;29.00
48551;DHT22;34397;51.176;6.738;2023-04-03T11:13:50;18.30;28.50
48551;DHT22;34397;51.176;6.738;2023-04-03T11:16:27;18.50;28.80
48551;DHT22;34397;51.176;6.738;2023-04-03T11:19:02;18.80;28.70
48551;DHT22;34397;51.176;6.738;2023-04-03T11:21:40;19.10;28.10
48551;DHT22;34397;51.176;6.738;2023-04-03T11:24:20;19.40;28.50
48551;DHT22;34397;51.176;6.738;2023-04-03T11:26:55;19.50;27.70
48551;DHT22;34397;51.176;6.738;2023-04-03T11:29:31;19.60;27.20
48551;DHT22;34397;51.176;6.738;2023-04-03T11:32:16;19.70;27.70
48551;DHT22;34397;51.176;6.738;2023-04-03T11:34:59;19.90;26.60
48551;DHT22;34397;51.176;6.738;2023-04-03T11:37:36;20.00;27.60
48551;DHT22;34397;51.176;6.738;2023-04-03T11:40:26;20.20;27.60
48551;DHT22;34397;51.176;6.738;2023-04-03T11:43:06;20.40;27.40
48551;DHT22;34397;51.176;6.738;2023-04-03T11:45:50;20.50;26.00
48551;DHT22;34397;51.176;6.738;2023-04-03T11:48:50;20.60;25.70
48551;DHT22;34397;51.176;6.738;2023-04-03T11:51:42;20.80;26.50
48551;DHT22;34397;51.176;6.738;2023-04-03T11:54:43;21.00;25.60
48551;DHT22;34397;51.176;6.738;2023-04-03T11:57:47;21.20;26.00
48551;DHT22;34397;51.176;6.738;2023-04-03T12:00:52;21.50;25.30
48551;DHT22;34397;51.176;6.738;2023-04-03T12:03:55;21.70;25.10
48551;DHT22;34397;51.176;6.738;2023-04-03T12:10:17;22.00;25.30
48551;DHT22;34397;51.176;6.738;2023-04-03T12:12:56;22.10;24.30
48551;DHT22;34397;51.176;6.738;2023-04-03T12:15:51;22.10;24.40
48551;DHT22;34397;51.176;6.738;2023-04-03T12:18:55;22.20;24.20
48551;DHT22;34397;51.176;6.738;2023-04-03T12:22:10;22.30;24.00
48551;DHT22;34397;51.176;6.738;2023-04-03T12:24:52;22.20;23.70
48551;DHT22;34397;51.176;6.738;2023-04-03T12:27:28;22.20;24.40
48551;DHT22;34397;51.176;6.738;2023-04-03T12:30:12;22.10;23.90
48551;DHT22;34397;51.176;6.738;2023-04-03T12:32:55;21.30;24.20
48551;DHT22;34397;51.176;6.738;2023-04-03T12:35:36;20.60;25.60
48551;DHT22;34397;51.176;6.738;2023-04-03T12:38:25;20.40;25.30
48551;DHT22;34397;51.176;6.738;2023-04-03T12:41:18;20.60;25.70
48551;DHT22;34397;51.176;6.738;2023-04-03T12:44:04;21.00;25.40
48551;DHT22;34397;51.176;6.738;2023-04-03T12:46:44;21.40;25.40
48551;DHT22;34397;51.176;6.738;2023-04-03T12:49:33;21.70;25.70
48551;DHT22;34397;51.176;6.738;2023-04-03T12:52:18;21.80;23.90
48551;DHT22;34397;51.176;6.738;2023-04-03T12:54:53;21.20;25.30
48551;DHT22;34397;51.176;6.738;2023-04-03T12:57:27;21.10;25.90
48551;DHT22;34397;51.176;6.738;2023-04-03T13:00:00;21.20;26.90
48551;DHT22;34397;51.176;6.738;2023-04-03T13:02:50;21.50;25.90
48551;DHT22;34397;51.176;6.738;2023-04-03T13:05:22;21.80;25.60
48551;DHT22;34397;51.176;6.738;2023-04-03T13:07:58;22.10;25.20
48551;DHT22;34397;51.176;6.738;2023-04-03T13:10:32;22.30;25.30
48551;DHT22;34397;51.176;6.738;2023-04-03T13:13:22;22.50;24.90
48551;DHT22;34397;51.176;6.738;2023-04-03T13:15:56;22.70;25.20
48551;DHT22;34397;51.176;6.738;2023-04-03T13:18:30;22.80;24.80
48551;DHT22;34397;51.176;6.738;2023-04-03T13:21:05;22.80;24.70
48551;DHT22;34397;51.176;6.738;2023-04-03T13:23:40;23.00;24.20
48551;DHT22;34397;51.176;6.738;2023-04-03T13:26:17;22.90;24.40
48551;DHT22;34397;51.176;6.738;2023-04-03T13:28:50;22.90;24.80
48551;DHT22;34397;51.176;6.738;2023-04-03T13:31:26;23.00;24.50
48551;DHT22;34397;51.176;6.738;2023-04-03T13:34:03;23.00;24.10
48551;DHT22;34397;51.176;6.738;2023-04-03T13:36:40;23.00;23.60
48551;DHT22;34397;51.176;6.738;2023-04-03T13:39:22;22.90;24.30
48551;DHT22;34397;51.176;6.738;2023-04-03T13:41:57;22.80;23.90
48551;DHT22;34397;51.176;6.738;2023-04-03T13:44:34;22.80;24.50
48551;DHT22;34397;51.176;6.738;2023-04-03T13:47:20;22.80;24.50
48551;DHT22;34397;51.176;6.738;2023-04-03T13:50:03;22.90;24.30
48551;DHT22;34397;51.176;6.738;2023-04-03T13:52:46;22.90;24.30
48551;DHT22;34397;51.176;6.738;2023-04-03T13:55:23;23.00;24.80
48551;DHT22;34397;51.176;6.738;2023-04-03T13:57:59;23.10;24.90
48551;DHT22;34397;51.176;6.738;2023-04-03T14:00:37;23.10;24.60
48551;DHT22;34397;51.176;6.738;2023-04-03T14:03:19;23.10;24.60
48551;DHT22;34397;51.176;6.738;2023-04-03T14:05:53;23.10;23.90
48551;DHT22;34397;51.176;6.738;2023-04-03T14:08:25;23.10;24.80
48551;DHT22;34397;51.176;6.738;2023-04-03T14:10:57;23.10;24.40
48551;DHT22;34397;51.176;6.738;2023-04-03T14:13:31;23.00;24.60
48551;DHT22;34397;51.176;6.738;2023-04-03T14:16:03;22.90;24.40
48551;DHT22;34397;51.176;6.738;2023-04-03T14:18:38;22.90;24.90
48551;DHT22;34397;51.176;6.738;2023-04-03T14:21:11;22.80;24.70
48551;DHT22;34397;51.176;6.738;2023-04-03T14:23:45;22.70;24.60
48551;DHT22;34397;51.176;6.738;2023-04-03T14:26:19;22.70;24.80
48551;DHT22;34397;51.176;6.738;2023-04-03T14:28:54;22.60;25.30
48551;DHT22;34397;51.176;6.738;2023-04-03T14:31:26;22.60;24.60
48551;DHT22;34397;51.176;6.738;2023-04-03T14:33:59;22.50;24.70
48551;DHT22;34397;51.176;6.738;2023-04-03T14:36:32;22.40;25.30
48551;DHT22;34397;51.176;6.738;2023-04-03T14:39:06;22.30;24.40
48551;DHT22;34397;51.176;6.738;2023-04-03T14:41:39;22.00;24.80
48551;DHT22;34397;51.176;6.738;2023-04-03T14:44:11;21.90;25.60
48551;DHT22;34397;51.176;6.738;2023-04-03T14:46:43;21.80;25.50
48551;DHT22;34397;51.176;6.738;2023-04-03T14:49:18;21.70;24.40
48551;DHT22;34397;51.176;6.738;2023-04-03T14:51:51;21.70;24.80
48551;DHT22;34397;51.176;6.738;2023-04-03T14:54:23;21.60;25.10
48551;DHT22;34397;51.176;6.738;2023-04-03T14:57:00;21.50;25.10
48551;DHT22;34397;51.176;6.738;2023-04-03T14:59:32;21.40;25.00
48551;DHT22;34397;51.176;6.738;2023-04-03T15:02:22;21.30;25.20
48551;DHT22;34397;51.176;6.738;2023-04-03T15:04:58;21.10;25.20
48551;DHT22;34397;51.176;6.738;2023-04-03T15:07:34;21.00;25.40
48551;DHT22;34397;51.176;6.738;2023-04-03T15:10:18;20.90;25.60
48551;DHT22;34397;51.176;6.738;2023-04-03T15:12:52;20.70;27.10
48551;DHT22;34397;51.176;6.738;2023-04-03T15:15:24;20.40;25.70
48551;DHT22;34397;51.176;6.738;2023-04-03T15:18:00;20.10;26.40
48551;DHT22;34397;51.176;6.738;2023-04-03T15:20:33;19.90;26.70
48551;DHT22;34397;51.176;6.738;2023-04-03T15:23:05;19.80;26.40
48551;DHT22;34397;51.176;6.738;2023-04-03T15:25:37;19.60;26.80
48551;DHT22;34397;51.176;6.738;2023-04-03T15:28:15;19.50;26.80
48551;DHT22;34397;51.176;6.738;2023-04-03T15:30:51;19.30;26.90
48551;DHT22;34397;51.176;6.738;2023-04-03T15:33:23;19.10;28.20
48551;DHT22;34397;51.176;6.738;2023-04-03T15:35:56;18.80;27.50
48551;DHT22;34397;51.176;6.738;2023-04-03T15:38:29;18.50;27.30
48551;DHT22;34397;51.176;6.738;2023-04-03T15:41:01;18.30;27.50
48551;DHT22;34397;51.176;6.738;2023-04-03T15:43:33;18.00;27.40
48551;DHT22;34397;51.176;6.738;2023-04-03T15:46:05;17.80;28.10
48551;DHT22;34397;51.176;6.738;2023-04-03T15:48:37;17.60;28.50
48551;DHT22;34397;51.176;6.738;2023-04-03T15:51:10;17.40;28.00
48551;DHT22;34397;51.176;6.738;2023-04-03T15:53:42;17.20;28.10
48551;DHT22;34397;51.176;6.738;2023-04-03T15:56:14;17.00;28.30
48551;DHT22;34397;51.176;6.738;2023-04-03T15:58:46;16.80;28.30
48551;DHT22;34397;51.176;6.738;2023-04-03T16:01:18;16.60;28.50
48551;DHT22;34397;51.176;6.738;2023-04-03T16:03:50;16.50;28.70
48551;DHT22;34397;51.176;6.738;2023-04-03T16:06:24;16.40;28.90
48551;DHT22;34397;51.176;6.738;2023-04-03T16:08:56;16.20;28.80
48551;DHT22;34397;51.176;6.738;2023-04-03T16:11:28;16.00;28.90
48551;DHT22;34397;51.176;6.738;2023-04-03T16:14:00;15.90;29.80
48551;DHT22;34397;51.176;6.738;2023-04-03T16:16:32;15.50;30.40
48551;DHT22;34397;51.176;6.738;2023-04-03T16:19:04;15.10;30.30
48551;DHT22;34397;51.176;6.738;2023-04-03T16:21:38;14.80;30.10
48551;DHT22;34397;51.176;6.738;2023-04-03T16:24:10;14.70;30.10
48551;DHT22;34397;51.176;6.738;2023-04-03T16:26:42;14.60;30.10
48551;DHT22;34397;51.176;6.738;2023-04-03T16:29:13;14.40;30.40
48551;DHT22;34397;51.176;6.738;2023-04-03T16:31:45;14.30;30.60
48551;DHT22;34397;51.176;6.738;2023-04-03T16:34:17;14.20;30.30
48551;DHT22;34397;51.176;6.738;2023-04-03T16:36:50;14.10;30.60
48551;DHT22;34397;51.176;6.738;2023-04-03T16:39:23;13.90;30.80